sensor_id;sensor_type;location;lat;lon;timestamp;P1;durP1;ratioP1;P2;durP2;ratioP2
47599;SDS011;33323;52.124;6.018;2022-12-07T00:01:34;13.13;;;6.32;;
47599;SDS011;33323;52.124;6.018;2022-12-07T00:04:05;10.35;;;6.25;;
47599;SDS011;33323;52.124;6.018;2022-12-07T00:06:37;9.95;;;5.35;;
47599;SDS011;33323;52.124;6.018;2022-12-07T00:09:10;9.60;;;5.20;;
47599;SDS011;33323;52.124;6.018;2022-12-07T00:11:40;9.27;;;5.57;;
47599;SDS011;33323;52.124;6.018;2022-12-07T00:14:10;10.57;;;5.35;;
47599;SDS011;33323;52.124;6.018;2022-12-07T00:16:39;7.65;;;4.60;;
47599;SDS011;33323;52.124;6.018;2022-12-07T00:19:08;7.05;;;4.25;;
47599;SDS011;33323;52.124;6.018;2022-12-07T00:21:38;8.80;;;5.30;;
47599;SDS011;33323;52.124;6.018;2022-12-07T00:24:05;8.35;;;5.57;;
47599;SDS011;33323;52.124;6.018;2022-12-07T00:26:34;7.68;;;4.40;;
47599;SDS011;33323;52.124;6.018;2022-12-07T00:29:06;8.45;;;4.38;;
47599;SDS011;33323;52.124;6.018;2022-12-07T00:31:39;6.45;;;4.53;;
47599;SDS011;33323;52.124;6.018;2022-12-07T00:34:07;10.98;;;5.18;;
47599;SDS011;33323;52.124;6.018;2022-12-07T00:36:40;7.95;;;4.45;;
47599;SDS011;33323;52.124;6.018;2022-12-07T00:39:08;8.30;;;5.18;;
47599;SDS011;33323;52.124;6.018;2022-12-07T00:41:36;10.80;;;5.70;;
47599;SDS011;33323;52.124;6.018;2022-12-07T00:44:03;12.52;;;5.75;;
47599;SDS011;33323;52.124;6.018;2022-12-07T00:46:30;7.38;;;5.15;;
47599;SDS011;33323;52.124;6.018;2022-12-07T00:48:57;12.60;;;5.13;;
47599;SDS011;33323;52.124;6.018;2022-12-07T00:51:25;8.90;;;5.68;;
47599;SDS011;33323;52.124;6.018;2022-12-07T00:53:52;9.73;;;5.68;;
47599;SDS011;33323;52.124;6.018;2022-12-07T00:56:21;10.23;;;5.40;;
47599;SDS011;33323;52.124;6.018;2022-12-07T00:59:00;9.45;;;5.63;;
47599;SDS011;33323;52.124;6.018;2022-12-07T01:01:33;13.18;;;5.32;;
47599;SDS011;33323;52.124;6.018;2022-12-07T01:04:03;11.57;;;5.45;;
47599;SDS011;33323;52.124;6.018;2022-12-07T01:06:31;11.70;;;5.63;;
47599;SDS011;33323;52.124;6.018;2022-12-07T01:09:40;9.38;;;5.07;;
47599;SDS011;33323;52.124;6.018;2022-12-07T01:12:10;11.48;;;5.57;;
47599;SDS011;33323;52.124;6.018;2022-12-07T01:14:37;9.23;;;5.22;;
47599;SDS011;33323;52.124;6.018;2022-12-07T01:17:09;7.10;;;4.45;;
47599;SDS011;33323;52.124;6.018;2022-12-07T01:20:07;7.60;;;4.50;;
47599;SDS011;33323;52.124;6.018;2022-12-07T01:26:20;15.15;;;4.63;;
47599;SDS011;33323;52.124;6.018;2022-12-07T01:28:59;10.35;;;4.50;;
47599;SDS011;33323;52.124;6.018;2022-12-07T01:31:27;9.90;;;4.22;;
47599;SDS011;33323;52.124;6.018;2022-12-07T01:33:56;9.13;;;5.95;;
47599;SDS011;33323;52.124;6.018;2022-12-07T01:36:26;9.48;;;4.40;;
47599;SDS011;33323;52.124;6.018;2022-12-07T01:40:06;12.88;;;7.07;;
47599;SDS011;33323;52.124;6.018;2022-12-07T01:42:34;10.23;;;5.00;;
47599;SDS011;33323;52.124;6.018;2022-12-07T01:51:24;11.00;;;4.63;;
47599;SDS011;33323;52.124;6.018;2022-12-07T01:54:18;11.57;;;4.13;;
47599;SDS011;33323;52.124;6.018;2022-12-07T01:56:52;8.25;;;4.47;;
47599;SDS011;33323;52.124;6.018;2022-12-07T02:00:38;8.25;;;3.58;;
47599;SDS011;33323;52.124;6.018;2022-12-07T02:03:11;9.68;;;4.63;;
47599;SDS011;33323;52.124;6.018;2022-12-07T02:05:50;11.38;;;4.35;;
47599;SDS011;33323;52.124;6.018;2022-12-07T02:08:19;8.00;;;3.72;;
47599;SDS011;33323;52.124;6.018;2022-12-07T02:10:47;7.05;;;4.60;;
47599;SDS011;33323;52.124;6.018;2022-12-07T02:13:15;13.05;;;4.35;;
47599;SDS011;33323;52.124;6.018;2022-12-07T02:16:03;11.38;;;3.88;;
47599;SDS011;33323;52.124;6.018;2022-12-07T02:27:20;8.85;;;4.22;;
47599;SDS011;33323;52.124;6.018;2022-12-07T02:30:14;7.80;;;3.53;;
47599;SDS011;33323;52.124;6.018;2022-12-07T02:33:37;8.25;;;3.30;;
47599;SDS011;33323;52.124;6.018;2022-12-07T02:37:03;9.85;;;3.47;;
47599;SDS011;33323;52.124;6.018;2022-12-07T02:45:33;5.97;;;2.83;;
47599;SDS011;33323;52.124;6.018;2022-12-07T02:51:42;7.05;;;2.70;;
47599;SDS011;33323;52.124;6.018;2022-12-07T02:54:13;12.20;;;4.25;;
47599;SDS011;33323;52.124;6.018;2022-12-07T03:09:16;11.00;;;3.63;;
47599;SDS011;33323;52.124;6.018;2022-12-07T03:12:01;7.63;;;3.53;;
47599;SDS011;33323;52.124;6.018;2022-12-07T03:18:55;9.20;;;3.53;;
47599;SDS011;33323;52.124;6.018;2022-12-07T03:22:13;10.48;;;2.60;;
47599;SDS011;33323;52.124;6.018;2022-12-07T03:24:24;9.77;;;2.60;;
47599;SDS011;33323;52.124;6.018;2022-12-07T03:26:58;6.38;;;3.10;;
47599;SDS011;33323;52.124;6.018;2022-12-07T03:33:22;10.07;;;3.47;;
47599;SDS011;33323;52.124;6.018;2022-12-07T03:35:59;5.70;;;3.05;;
47599;SDS011;33323;52.124;6.018;2022-12-07T03:38:42;8.13;;;3.17;;
47599;SDS011;33323;52.124;6.018;2022-12-07T03:41:20;12.90;;;3.10;;
47599;SDS011;33323;52.124;6.018;2022-12-07T03:43:53;8.52;;;4.70;;
47599;SDS011;33323;52.124;6.018;2022-12-07T03:57:37;8.57;;;3.08;;
47599;SDS011;33323;52.124;6.018;2022-12-07T04:00:07;7.78;;;3.10;;
47599;SDS011;33323;52.124;6.018;2022-12-07T04:02:57;9.00;;;3.45;;
47599;SDS011;33323;52.124;6.018;2022-12-07T04:05:25;7.65;;;3.70;;
47599;SDS011;33323;52.124;6.018;2022-12-07T04:07:52;5.43;;;2.38;;
47599;SDS011;33323;52.124;6.018;2022-12-07T04:10:19;8.05;;;2.28;;
47599;SDS011;33323;52.124;6.018;2022-12-07T04:12:49;8.25;;;2.33;;
47599;SDS011;33323;52.124;6.018;2022-12-07T04:15:57;4.15;;;2.22;;
47599;SDS011;33323;52.124;6.018;2022-12-07T04:18:24;6.18;;;2.50;;
47599;SDS011;33323;52.124;6.018;2022-12-07T04:20:51;4.70;;;2.40;;
47599;SDS011;33323;52.124;6.018;2022-12-07T04:23:18;3.47;;;2.13;;
47599;SDS011;33323;52.124;6.018;2022-12-07T04:25:47;5.93;;;2.10;;
47599;SDS011;33323;52.124;6.018;2022-12-07T04:31:31;8.60;;;3.08;;
47599;SDS011;33323;52.124;6.018;2022-12-07T04:33:58;7.32;;;2.42;;
47599;SDS011;33323;52.124;6.018;2022-12-07T04:36:31;12.10;;;3.15;;
47599;SDS011;33323;52.124;6.018;2022-12-07T04:39:55;7.18;;;3.90;;
47599;SDS011;33323;52.124;6.018;2022-12-07T04:42:22;5.35;;;2.67;;
47599;SDS011;33323;52.124;6.018;2022-12-07T04:44:49;15.10;;;3.55;;
47599;SDS011;33323;52.124;6.018;2022-12-07T04:47:32;12.55;;;3.92;;
47599;SDS011;33323;52.124;6.018;2022-12-07T04:50:50;12.55;;;2.85;;
47599;SDS011;33323;52.124;6.018;2022-12-07T04:53:45;10.20;;;2.75;;
47599;SDS011;33323;52.124;6.018;2022-12-07T04:56:12;9.13;;;3.75;;
47599;SDS011;33323;52.124;6.018;2022-12-07T05:01:54;10.93;;;3.83;;
47599;SDS011;33323;52.124;6.018;2022-12-07T05:04:35;4.75;;;2.78;;
47599;SDS011;33323;52.124;6.018;2022-12-07T05:07:24;8.90;;;3.00;;
47599;SDS011;33323;52.124;6.018;2022-12-07T05:10:22;4.30;;;2.22;;
47599;SDS011;33323;52.124;6.018;2022-12-07T05:12:51;5.43;;;2.95;;
47599;SDS011;33323;52.124;6.018;2022-12-07T05:15:19;21.02;;;3.03;;
47599;SDS011;33323;52.124;6.018;2022-12-07T05:21:03;15.18;;;3.13;;
47599;SDS011;33323;52.124;6.018;2022-12-07T05:24:58;5.82;;;2.42;;
47599;SDS011;33323;52.124;6.018;2022-12-07T05:28:52;5.97;;;2.50;;
47599;SDS011;33323;52.124;6.018;2022-12-07T05:31:20;8.07;;;2.95;;
47599;SDS011;33323;52.124;6.018;2022-12-07T05:33:49;10.13;;;2.72;;
47599;SDS011;33323;52.124;6.018;2022-12-07T05:41:04;8.80;;;2.90;;
47599;SDS011;33323;52.124;6.018;2022-12-07T05:43:38;6.90;;;2.67;;
47599;SDS011;33323;52.124;6.018;2022-12-07T05:46:05;6.78;;;2.75;;
47599;SDS011;33323;52.124;6.018;2022-12-07T05:48:32;3.28;;;2.13;;
47599;SDS011;33323;52.124;6.018;2022-12-07T05:50:59;10.27;;;2.60;;
47599;SDS011;33323;52.124;6.018;2022-12-07T05:53:26;7.38;;;2.08;;
47599;SDS011;33323;52.124;6.018;2022-12-07T05:55:53;15.57;;;3.08;;
47599;SDS011;33323;52.124;6.018;2022-12-07T05:58:21;9.05;;;2.67;;
47599;SDS011;33323;52.124;6.018;2022-12-07T06:01:19;4.70;;;2.40;;
47599;SDS011;33323;52.124;6.018;2022-12-07T06:03:46;4.95;;;2.03;;
47599;SDS011;33323;52.124;6.018;2022-12-07T06:06:13;4.47;;;2.03;;
47599;SDS011;33323;52.124;6.018;2022-12-07T06:08:42;6.72;;;2.50;;
47599;SDS011;33323;52.124;6.018;2022-12-07T06:11:24;10.68;;;2.40;;
47599;SDS011;33323;52.124;6.018;2022-12-07T06:14:31;5.32;;;3.08;;
47599;SDS011;33323;52.124;6.018;2022-12-07T06:17:11;7.97;;;2.03;;
47599;SDS011;33323;52.124;6.018;2022-12-07T06:19:47;7.13;;;2.15;;
47599;SDS011;33323;52.124;6.018;2022-12-07T06:22:14;9.20;;;2.42;;
47599;SDS011;33323;52.124;6.018;2022-12-07T06:24:42;6.45;;;3.03;;
47599;SDS011;33323;52.124;6.018;2022-12-07T06:27:09;9.25;;;2.55;;
47599;SDS011;33323;52.124;6.018;2022-12-07T06:29:36;7.32;;;2.40;;
47599;SDS011;33323;52.124;6.018;2022-12-07T06:32:04;7.28;;;2.67;;
47599;SDS011;33323;52.124;6.018;2022-12-07T06:34:31;6.05;;;2.40;;
47599;SDS011;33323;52.124;6.018;2022-12-07T06:36:58;9.65;;;3.50;;
47599;SDS011;33323;52.124;6.018;2022-12-07T06:39:27;4.45;;;2.42;;
47599;SDS011;33323;52.124;6.018;2022-12-07T06:41:55;6.95;;;2.35;;
47599;SDS011;33323;52.124;6.018;2022-12-07T06:44:23;11.02;;;2.45;;
47599;SDS011;33323;52.124;6.018;2022-12-07T06:46:51;9.30;;;2.90;;
47599;SDS011;33323;52.124;6.018;2022-12-07T06:49:37;8.13;;;2.70;;
47599;SDS011;33323;52.124;6.018;2022-12-07T06:52:06;6.20;;;3.05;;
47599;SDS011;33323;52.124;6.018;2022-12-07T06:54:33;6.53;;;2.25;;
47599;SDS011;33323;52.124;6.018;2022-12-07T06:57:00;7.63;;;2.97;;
47599;SDS011;33323;52.124;6.018;2022-12-07T07:02:34;16.15;;;2.88;;
47599;SDS011;33323;52.124;6.018;2022-12-07T07:05:10;9.77;;;3.58;;
47599;SDS011;33323;52.124;6.018;2022-12-07T07:07:46;5.65;;;2.20;;
47599;SDS011;33323;52.124;6.018;2022-12-07T08:06:48;6.90;;;2.72;;
47599;SDS011;33323;52.124;6.018;2022-12-07T08:09:15;4.95;;;3.05;;
47599;SDS011;33323;52.124;6.018;2022-12-07T08:11:42;6.00;;;2.42;;
47599;SDS011;33323;52.124;6.018;2022-12-07T08:14:09;12.68;;;3.10;;
47599;SDS011;33323;52.124;6.018;2022-12-07T08:16:37;11.13;;;2.20;;
47599;SDS011;33323;52.124;6.018;2022-12-07T08:19:04;7.57;;;1.92;;
47599;SDS011;33323;52.124;6.018;2022-12-07T08:22:18;3.83;;;2.00;;
47599;SDS011;33323;52.124;6.018;2022-12-07T08:24:45;6.80;;;1.95;;
47599;SDS011;33323;52.124;6.018;2022-12-07T08:27:12;6.78;;;2.58;;
47599;SDS011;33323;52.124;6.018;2022-12-07T08:29:39;6.70;;;1.50;;
47599;SDS011;33323;52.124;6.018;2022-12-07T08:34:59;7.53;;;2.13;;
47599;SDS011;33323;52.124;6.018;2022-12-07T08:37:26;6.95;;;2.28;;
47599;SDS011;33323;52.124;6.018;2022-12-07T08:43:00;11.25;;;3.35;;
47599;SDS011;33323;52.124;6.018;2022-12-07T08:45:28;4.85;;;2.25;;
47599;SDS011;33323;52.124;6.018;2022-12-07T08:48:00;6.68;;;2.05;;
47599;SDS011;33323;52.124;6.018;2022-12-07T08:50:32;6.90;;;1.95;;
47599;SDS011;33323;52.124;6.018;2022-12-07T08:53:00;5.93;;;1.60;;
47599;SDS011;33323;52.124;6.018;2022-12-07T08:55:28;10.20;;;2.20;;
47599;SDS011;33323;52.124;6.018;2022-12-07T08:57:56;4.40;;;1.58;;
47599;SDS011;33323;52.124;6.018;2022-12-07T09:00:25;9.95;;;2.95;;
47599;SDS011;33323;52.124;6.018;2022-12-07T09:02:53;6.72;;;1.42;;
47599;SDS011;33323;52.124;6.018;2022-12-07T09:05:20;6.53;;;1.20;;
47599;SDS011;33323;52.124;6.018;2022-12-07T09:07:48;4.30;;;1.42;;
47599;SDS011;33323;52.124;6.018;2022-12-07T09:10:18;9.70;;;1.52;;
47599;SDS011;33323;52.124;6.018;2022-12-07T09:12:45;7.07;;;1.40;;
47599;SDS011;33323;52.124;6.018;2022-12-07T09:15:12;5.43;;;1.30;;
47599;SDS011;33323;52.124;6.018;2022-12-07T09:17:39;8.45;;;1.40;;
47599;SDS011;33323;52.124;6.018;2022-12-07T09:20:06;5.15;;;1.45;;
47599;SDS011;33323;52.124;6.018;2022-12-07T09:22:34;6.72;;;1.35;;
47599;SDS011;33323;52.124;6.018;2022-12-07T09:25:01;7.30;;;1.20;;
47599;SDS011;33323;52.124;6.018;2022-12-07T09:27:30;4.65;;;2.17;;
47599;SDS011;33323;52.124;6.018;2022-12-07T09:29:58;5.45;;;1.63;;
47599;SDS011;33323;52.124;6.018;2022-12-07T09:32:25;8.32;;;1.48;;
47599;SDS011;33323;52.124;6.018;2022-12-07T09:34:52;7.95;;;1.50;;
47599;SDS011;33323;52.124;6.018;2022-12-07T09:37:19;5.30;;;1.30;;
47599;SDS011;33323;52.124;6.018;2022-12-07T09:39:47;4.45;;;1.00;;
47599;SDS011;33323;52.124;6.018;2022-12-07T09:44:59;3.17;;;0.93;;
47599;SDS011;33323;52.124;6.018;2022-12-07T09:47:28;3.65;;;1.25;;
47599;SDS011;33323;52.124;6.018;2022-12-07T09:50:03;6.10;;;1.30;;
47599;SDS011;33323;52.124;6.018;2022-12-07T09:52:37;4.53;;;1.23;;
47599;SDS011;33323;52.124;6.018;2022-12-07T09:55:09;4.28;;;1.23;;
47599;SDS011;33323;52.124;6.018;2022-12-07T09:57:42;7.38;;;1.45;;
47599;SDS011;33323;52.124;6.018;2022-12-07T10:00:13;14.10;;;1.17;;
47599;SDS011;33323;52.124;6.018;2022-12-07T10:02:46;4.78;;;1.00;;
47599;SDS011;33323;52.124;6.018;2022-12-07T10:05:30;7.07;;;1.23;;
47599;SDS011;33323;52.124;6.018;2022-12-07T10:08:11;6.70;;;2.30;;
47599;SDS011;33323;52.124;6.018;2022-12-07T10:10:40;2.83;;;0.75;;
47599;SDS011;33323;52.124;6.018;2022-12-07T10:13:08;2.47;;;0.88;;
47599;SDS011;33323;52.124;6.018;2022-12-07T10:15:43;2.22;;;1.20;;
47599;SDS011;33323;52.124;6.018;2022-12-07T10:24:03;3.47;;;1.25;;
47599;SDS011;33323;52.124;6.018;2022-12-07T10:29:15;4.38;;;0.95;;
47599;SDS011;33323;52.124;6.018;2022-12-07T10:32:03;2.17;;;1.05;;
47599;SDS011;33323;52.124;6.018;2022-12-07T10:34:34;5.85;;;1.80;;
47599;SDS011;33323;52.124;6.018;2022-12-07T10:42:21;5.55;;;1.15;;
47599;SDS011;33323;52.124;6.018;2022-12-07T10:45:36;7.72;;;1.20;;
47599;SDS011;33323;52.124;6.018;2022-12-07T10:59:46;2.40;;;1.15;;
47599;SDS011;33323;52.124;6.018;2022-12-07T11:08:38;5.72;;;1.60;;
47599;SDS011;33323;52.124;6.018;2022-12-07T11:11:32;4.93;;;1.52;;
47599;SDS011;33323;52.124;6.018;2022-12-07T11:17:07;5.88;;;1.38;;
47599;SDS011;33323;52.124;6.018;2022-12-07T11:31:43;4.30;;;1.88;;
47599;SDS011;33323;52.124;6.018;2022-12-07T11:34:36;3.05;;;1.15;;
47599;SDS011;33323;52.124;6.018;2022-12-07T11:37:25;7.78;;;2.72;;
47599;SDS011;33323;52.124;6.018;2022-12-07T11:42:59;6.03;;;1.33;;
47599;SDS011;33323;52.124;6.018;2022-12-07T11:45:46;4.85;;;1.02;;
47599;SDS011;33323;52.124;6.018;2022-12-07T11:48:41;4.35;;;1.30;;
47599;SDS011;33323;52.124;6.018;2022-12-07T11:51:13;6.22;;;1.15;;
47599;SDS011;33323;52.124;6.018;2022-12-07T11:53:46;6.55;;;1.35;;
47599;SDS011;33323;52.124;6.018;2022-12-07T11:56:20;5.95;;;0.98;;
47599;SDS011;33323;52.124;6.018;2022-12-07T12:06:38;4.82;;;0.82;;
47599;SDS011;33323;52.124;6.018;2022-12-07T12:09:17;2.95;;;0.85;;
47599;SDS011;33323;52.124;6.018;2022-12-07T12:12:17;6.75;;;1.40;;
47599;SDS011;33323;52.124;6.018;2022-12-07T12:21:41;5.65;;;1.35;;
47599;SDS011;33323;52.124;6.018;2022-12-07T12:24:11;7.65;;;1.52;;
47599;SDS011;33323;52.124;6.018;2022-12-07T12:27:02;3.73;;;1.10;;
47599;SDS011;33323;52.124;6.018;2022-12-07T12:29:35;7.32;;;1.75;;
47599;SDS011;33323;52.124;6.018;2022-12-07T12:42:44;3.20;;;1.00;;
47599;SDS011;33323;52.124;6.018;2022-12-07T12:45:24;3.30;;;1.65;;
47599;SDS011;33323;52.124;6.018;2022-12-07T12:52:56;4.35;;;0.63;;
47599;SDS011;33323;52.124;6.018;2022-12-07T12:56:18;7.30;;;1.77;;
47599;SDS011;33323;52.124;6.018;2022-12-07T12:58:41;4.15;;;1.10;;
47599;SDS011;33323;52.124;6.018;2022-12-07T13:04:23;6.05;;;1.05;;
47599;SDS011;33323;52.124;6.018;2022-12-07T13:07:01;5.22;;;0.80;;
47599;SDS011;33323;52.124;6.018;2022-12-07T13:09:29;7.40;;;0.93;;
47599;SDS011;33323;52.124;6.018;2022-12-07T13:12:04;9.65;;;1.77;;
47599;SDS011;33323;52.124;6.018;2022-12-07T13:14:51;15.27;;;1.42;;
47599;SDS011;33323;52.124;6.018;2022-12-07T13:19:59;3.17;;;0.40;;
47599;SDS011;33323;52.124;6.018;2022-12-07T13:27:57;3.28;;;0.80;;
47599;SDS011;33323;52.124;6.018;2022-12-07T13:33:32;3.72;;;0.60;;
47599;SDS011;33323;52.124;6.018;2022-12-07T13:36:01;6.97;;;1.40;;
47599;SDS011;33323;52.124;6.018;2022-12-07T13:38:32;5.22;;;0.60;;
47599;SDS011;33323;52.124;6.018;2022-12-07T13:41:13;9.32;;;0.80;;
47599;SDS011;33323;52.124;6.018;2022-12-07T13:43:44;6.85;;;0.75;;
47599;SDS011;33323;52.124;6.018;2022-12-07T13:49:17;6.07;;;0.95;;
47599;SDS011;33323;52.124;6.018;2022-12-07T13:51:54;5.88;;;1.60;;
47599;SDS011;33323;52.124;6.018;2022-12-07T13:54:59;3.28;;;1.65;;
47599;SDS011;33323;52.124;6.018;2022-12-07T13:57:35;8.00;;;1.20;;
47599;SDS011;33323;52.124;6.018;2022-12-07T14:00:03;5.80;;;0.45;;
47599;SDS011;33323;52.124;6.018;2022-12-07T14:02:58;3.40;;;0.70;;
47599;SDS011;33323;52.124;6.018;2022-12-07T14:05:42;9.25;;;2.33;;
47599;SDS011;33323;52.124;6.018;2022-12-07T14:13:24;8.43;;;0.88;;
47599;SDS011;33323;52.124;6.018;2022-12-07T14:18:56;5.18;;;0.77;;
47599;SDS011;33323;52.124;6.018;2022-12-07T14:21:29;4.35;;;0.70;;
47599;SDS011;33323;52.124;6.018;2022-12-07T14:26:46;1.80;;;0.73;;
47599;SDS011;33323;52.124;6.018;2022-12-07T14:29:21;2.40;;;0.50;;
47599;SDS011;33323;52.124;6.018;2022-12-07T14:31:58;2.30;;;0.88;;
47599;SDS011;33323;52.124;6.018;2022-12-07T14:34:59;4.80;;;0.40;;
47599;SDS011;33323;52.124;6.018;2022-12-07T14:37:46;1.85;;;0.55;;
47599;SDS011;33323;52.124;6.018;2022-12-07T14:40:20;4.20;;;0.57;;
47599;SDS011;33323;52.124;6.018;2022-12-07T14:42:55;3.20;;;0.60;;
47599;SDS011;33323;52.124;6.018;2022-12-07T14:45:35;3.83;;;0.55;;
47599;SDS011;33323;52.124;6.018;2022-12-07T14:48:02;3.42;;;1.13;;
47599;SDS011;33323;52.124;6.018;2022-12-07T14:50:51;3.60;;;1.17;;
47599;SDS011;33323;52.124;6.018;2022-12-07T14:53:40;1.92;;;0.65;;
47599;SDS011;33323;52.124;6.018;2022-12-07T14:56:18;2.22;;;0.75;;
47599;SDS011;33323;52.124;6.018;2022-12-07T14:58:45;2.47;;;0.75;;
47599;SDS011;33323;52.124;6.018;2022-12-07T15:01:14;1.13;;;0.50;;
47599;SDS011;33323;52.124;6.018;2022-12-07T15:03:41;2.47;;;0.47;;
47599;SDS011;33323;52.124;6.018;2022-12-07T15:06:10;1.67;;;0.50;;
47599;SDS011;33323;52.124;6.018;2022-12-07T15:08:42;1.88;;;0.50;;
47599;SDS011;33323;52.124;6.018;2022-12-07T15:11:16;4.95;;;1.00;;
47599;SDS011;33323;52.124;6.018;2022-12-07T15:13:54;5.07;;;0.82;;
47599;SDS011;33323;52.124;6.018;2022-12-07T15:16:40;5.43;;;0.85;;
47599;SDS011;33323;52.124;6.018;2022-12-07T15:19:29;4.88;;;0.70;;
47599;SDS011;33323;52.124;6.018;2022-12-07T15:21:56;2.08;;;0.68;;
47599;SDS011;33323;52.124;6.018;2022-12-07T15:24:26;4.85;;;0.90;;
47599;SDS011;33323;52.124;6.018;2022-12-07T15:26:53;4.25;;;1.00;;
47599;SDS011;33323;52.124;6.018;2022-12-07T15:29:20;6.18;;;0.98;;
47599;SDS011;33323;52.124;6.018;2022-12-07T15:31:52;3.35;;;0.95;;
47599;SDS011;33323;52.124;6.018;2022-12-07T15:34:25;5.95;;;2.10;;
47599;SDS011;33323;52.124;6.018;2022-12-07T15:37:04;5.20;;;1.00;;
47599;SDS011;33323;52.124;6.018;2022-12-07T15:39:32;6.05;;;1.50;;
47599;SDS011;33323;52.124;6.018;2022-12-07T15:41:59;3.47;;;1.33;;
47599;SDS011;33323;52.124;6.018;2022-12-07T15:44:26;2.83;;;0.70;;
47599;SDS011;33323;52.124;6.018;2022-12-07T15:47:12;10.07;;;1.40;;
47599;SDS011;33323;52.124;6.018;2022-12-07T15:49:39;3.70;;;1.08;;
47599;SDS011;33323;52.124;6.018;2022-12-07T15:52:06;3.67;;;1.33;;
47599;SDS011;33323;52.124;6.018;2022-12-07T15:54:33;3.40;;;1.00;;
47599;SDS011;33323;52.124;6.018;2022-12-07T15:57:00;6.93;;;1.52;;
47599;SDS011;33323;52.124;6.018;2022-12-07T15:59:27;3.00;;;1.33;;
47599;SDS011;33323;52.124;6.018;2022-12-07T16:01:55;1.55;;;0.93;;
47599;SDS011;33323;52.124;6.018;2022-12-07T16:04:55;4.65;;;1.30;;
47599;SDS011;33323;52.124;6.018;2022-12-07T16:07:22;4.40;;;0.93;;
47599;SDS011;33323;52.124;6.018;2022-12-07T16:09:49;4.18;;;1.42;;
47599;SDS011;33323;52.124;6.018;2022-12-07T16:12:16;3.33;;;1.23;;
47599;SDS011;33323;52.124;6.018;2022-12-07T16:14:43;8.23;;;2.17;;
47599;SDS011;33323;52.124;6.018;2022-12-07T16:20:07;5.22;;;0.85;;
47599;SDS011;33323;52.124;6.018;2022-12-07T16:22:51;2.33;;;0.52;;
47599;SDS011;33323;52.124;6.018;2022-12-07T16:25:24;2.95;;;0.60;;
47599;SDS011;33323;52.124;6.018;2022-12-07T16:28:07;9.80;;;3.20;;
47599;SDS011;33323;52.124;6.018;2022-12-07T16:31:20;7.18;;;0.47;;
47599;SDS011;33323;52.124;6.018;2022-12-07T16:34:59;1.85;;;0.85;;
47599;SDS011;33323;52.124;6.018;2022-12-07T16:59:33;3.92;;;0.43;;
47599;SDS011;33323;52.124;6.018;2022-12-07T17:02:02;5.95;;;0.90;;
47599;SDS011;33323;52.124;6.018;2022-12-07T17:04:30;4.45;;;0.88;;
47599;SDS011;33323;52.124;6.018;2022-12-07T17:06:57;5.20;;;1.13;;
47599;SDS011;33323;52.124;6.018;2022-12-07T17:09:25;1.90;;;1.05;;
47599;SDS011;33323;52.124;6.018;2022-12-07T17:11:53;2.78;;;1.15;;
47599;SDS011;33323;52.124;6.018;2022-12-07T17:14:23;3.42;;;1.20;;
47599;SDS011;33323;52.124;6.018;2022-12-07T17:34:55;10.15;;;1.90;;
47599;SDS011;33323;52.124;6.018;2022-12-07T17:37:22;6.15;;;2.33;;
47599;SDS011;33323;52.124;6.018;2022-12-07T17:58:50;7.30;;;2.87;;
47599;SDS011;33323;52.124;6.018;2022-12-07T18:01:17;5.45;;;2.70;;
47599;SDS011;33323;52.124;6.018;2022-12-07T18:03:49;7.05;;;2.92;;
47599;SDS011;33323;52.124;6.018;2022-12-07T18:06:16;9.23;;;2.72;;
47599;SDS011;33323;52.124;6.018;2022-12-07T18:08:43;6.82;;;3.05;;
47599;SDS011;33323;52.124;6.018;2022-12-07T18:11:10;4.00;;;2.90;;
47599;SDS011;33323;52.124;6.018;2022-12-07T18:13:40;4.72;;;2.95;;
47599;SDS011;33323;52.124;6.018;2022-12-07T18:16:08;5.60;;;3.35;;
47599;SDS011;33323;52.124;6.018;2022-12-07T18:18:39;5.72;;;3.53;;
47599;SDS011;33323;52.124;6.018;2022-12-07T18:21:07;8.43;;;4.53;;
47599;SDS011;33323;52.124;6.018;2022-12-07T18:23:48;5.80;;;2.87;;
47599;SDS011;33323;52.124;6.018;2022-12-07T18:26:19;7.88;;;3.50;;
47599;SDS011;33323;52.124;6.018;2022-12-07T18:28:48;6.07;;;4.50;;
47599;SDS011;33323;52.124;6.018;2022-12-07T18:31:16;6.75;;;3.70;;
47599;SDS011;33323;52.124;6.018;2022-12-07T18:33:44;7.60;;;3.70;;
47599;SDS011;33323;52.124;6.018;2022-12-07T18:36:12;6.07;;;3.10;;
47599;SDS011;33323;52.124;6.018;2022-12-07T18:38:40;13.73;;;3.60;;
47599;SDS011;33323;52.124;6.018;2022-12-07T18:41:08;8.43;;;3.70;;
47599;SDS011;33323;52.124;6.018;2022-12-07T18:43:38;8.27;;;3.50;;
47599;SDS011;33323;52.124;6.018;2022-12-07T18:46:24;6.18;;;3.60;;
47599;SDS011;33323;52.124;6.018;2022-12-07T18:48:51;7.15;;;3.05;;
47599;SDS011;33323;52.124;6.018;2022-12-07T18:51:18;9.45;;;3.85;;
47599;SDS011;33323;52.124;6.018;2022-12-07T18:53:47;8.10;;;3.78;;
47599;SDS011;33323;52.124;6.018;2022-12-07T18:56:18;6.65;;;3.58;;
47599;SDS011;33323;52.124;6.018;2022-12-07T19:07:08;6.50;;;3.47;;
47599;SDS011;33323;52.124;6.018;2022-12-07T19:09:35;5.88;;;3.03;;
47599;SDS011;33323;52.124;6.018;2022-12-07T19:12:02;6.13;;;3.83;;
47599;SDS011;33323;52.124;6.018;2022-12-07T19:14:32;10.75;;;3.58;;
47599;SDS011;33323;52.124;6.018;2022-12-07T19:17:03;9.82;;;5.85;;
47599;SDS011;33323;52.124;6.018;2022-12-07T19:20:03;9.98;;;2.92;;
47599;SDS011;33323;52.124;6.018;2022-12-07T19:22:35;11.82;;;3.50;;
47599;SDS011;33323;52.124;6.018;2022-12-07T19:25:02;7.25;;;3.53;;
47599;SDS011;33323;52.124;6.018;2022-12-07T19:27:30;9.82;;;3.38;;
47599;SDS011;33323;52.124;6.018;2022-12-07T20:32:22;4.40;;;2.40;;
47599;SDS011;33323;52.124;6.018;2022-12-07T20:34:49;4.25;;;2.22;;
47599;SDS011;33323;52.124;6.018;2022-12-07T20:37:16;7.30;;;2.42;;
47599;SDS011;33323;52.124;6.018;2022-12-07T20:39:43;6.40;;;3.42;;
47599;SDS011;33323;52.124;6.018;2022-12-07T20:44:59;5.20;;;3.20;;
47599;SDS011;33323;52.124;6.018;2022-12-07T20:47:29;4.95;;;2.88;;
47599;SDS011;33323;52.124;6.018;2022-12-07T20:49:56;8.82;;;3.38;;
47599;SDS011;33323;52.124;6.018;2022-12-07T20:52:22;7.93;;;3.33;;
47599;SDS011;33323;52.124;6.018;2022-12-07T20:54:49;6.60;;;3.42;;
47599;SDS011;33323;52.124;6.018;2022-12-07T20:57:16;9.63;;;4.43;;
47599;SDS011;33323;52.124;6.018;2022-12-07T20:59:43;6.82;;;3.92;;
47599;SDS011;33323;52.124;6.018;2022-12-07T21:02:11;9.85;;;4.05;;
47599;SDS011;33323;52.124;6.018;2022-12-07T21:04:39;7.25;;;4.40;;
47599;SDS011;33323;52.124;6.018;2022-12-07T21:07:06;7.35;;;3.10;;
47599;SDS011;33323;52.124;6.018;2022-12-07T21:09:34;10.20;;;4.13;;
47599;SDS011;33323;52.124;6.018;2022-12-07T21:12:01;7.78;;;3.55;;
47599;SDS011;33323;52.124;6.018;2022-12-07T21:14:28;10.70;;;4.90;;
47599;SDS011;33323;52.124;6.018;2022-12-07T21:16:55;10.20;;;5.65;;
47599;SDS011;33323;52.124;6.018;2022-12-07T21:19:22;9.18;;;4.47;;
47599;SDS011;33323;52.124;6.018;2022-12-07T21:21:50;8.35;;;5.30;;
47599;SDS011;33323;52.124;6.018;2022-12-07T21:24:17;10.15;;;4.88;;
47599;SDS011;33323;52.124;6.018;2022-12-07T21:26:44;12.15;;;4.50;;
47599;SDS011;33323;52.124;6.018;2022-12-07T21:29:11;10.90;;;5.30;;
47599;SDS011;33323;52.124;6.018;2022-12-07T21:31:38;9.35;;;4.78;;
47599;SDS011;33323;52.124;6.018;2022-12-07T21:34:05;17.33;;;5.15;;
47599;SDS011;33323;52.124;6.018;2022-12-07T21:36:33;9.07;;;5.70;;
47599;SDS011;33323;52.124;6.018;2022-12-07T21:39:00;18.35;;;5.22;;
47599;SDS011;33323;52.124;6.018;2022-12-07T21:41:29;16.00;;;5.65;;
47599;SDS011;33323;52.124;6.018;2022-12-07T21:43:58;10.25;;;4.75;;
47599;SDS011;33323;52.124;6.018;2022-12-07T21:46:26;19.77;;;5.97;;
47599;SDS011;33323;52.124;6.018;2022-12-07T21:49:00;11.05;;;5.15;;
47599;SDS011;33323;52.124;6.018;2022-12-07T21:54:02;8.05;;;5.13;;
47599;SDS011;33323;52.124;6.018;2022-12-07T21:56:35;9.52;;;5.93;;
47599;SDS011;33323;52.124;6.018;2022-12-07T21:59:05;9.23;;;5.90;;